sensor_id;sensor_type;location;lat;lon;timestamp;pressure;altitude;pressure_sealevel;temperature;humidity
62926;BME280;55732;52.248;-0.844;2023-06-26T00:01:15;100632.69;;;17.73;55.15
62926;BME280;55732;52.248;-0.844;2023-06-26T00:03:40;100630.79;;;17.71;55.16
62926;BME280;55732;52.248;-0.844;2023-06-26T00:06:05;100633.91;;;17.69;55.29
62926;BME280;55732;52.248;-0.844;2023-06-26T00:08:31;100634.34;;;17.66;55.34
62926;BME280;55732;52.248;-0.844;2023-06-26T00:10:56;100635.65;;;17.62;55.56
62926;BME280;55732;52.248;-0.844;2023-06-26T00:13:23;100637.66;;;17.61;55.75
62926;BME280;55732;52.248;-0.844;2023-06-26T00:15:50;100637.52;;;17.59;55.73
62926;BME280;55732;52.248;-0.844;2023-06-26T00:18:16;100638.67;;;17.57;55.73
62926;BME280;55732;52.248;-0.844;2023-06-26T00:20:41;100639.48;;;17.54;55.82
62926;BME280;55732;52.248;-0.844;2023-06-26T00:23:06;100641.16;;;17.51;56.14
62926;BME280;55732;52.248;-0.844;2023-06-26T00:25:35;100642.09;;;17.49;56.21
62926;BME280;55732;52.248;-0.844;2023-06-26T00:28:01;100640.05;;;17.46;56.20
62926;BME280;55732;52.248;-0.844;2023-06-26T00:30:26;100635.79;;;17.39;56.42
62926;BME280;55732;52.248;-0.844;2023-06-26T00:32:52;100634.02;;;17.33;56.39
62926;BME280;55732;52.248;-0.844;2023-06-26T00:35:18;100635.34;;;17.30;56.66
62926;BME280;55732;52.248;-0.844;2023-06-26T00:37:44;100636.86;;;17.26;56.99
62926;BME280;55732;52.248;-0.844;2023-06-26T00:40:09;100642.45;;;17.23;57.11
62926;BME280;55732;52.248;-0.844;2023-06-26T00:42:35;100642.36;;;17.21;57.23
62926;BME280;55732;52.248;-0.844;2023-06-26T00:45:01;100643.86;;;17.18;57.26
62926;BME280;55732;52.248;-0.844;2023-06-26T00:47:26;100647.84;;;17.15;57.27
62926;BME280;55732;52.248;-0.844;2023-06-26T00:49:53;100652.17;;;17.12;57.50
62926;BME280;55732;52.248;-0.844;2023-06-26T00:52:20;100655.45;;;17.10;57.76
62926;BME280;55732;52.248;-0.844;2023-06-26T00:54:46;100656.56;;;17.09;57.87
62926;BME280;55732;52.248;-0.844;2023-06-26T00:57:12;100649.48;;;17.08;58.03
62926;BME280;55732;52.248;-0.844;2023-06-26T00:59:37;100646.34;;;17.05;58.19
62926;BME280;55732;52.248;-0.844;2023-06-26T01:02:03;100652.29;;;17.02;58.32
62926;BME280;55732;52.248;-0.844;2023-06-26T01:04:29;100653.79;;;17.00;58.34
62926;BME280;55732;52.248;-0.844;2023-06-26T01:06:59;100655.84;;;16.96;58.26
62926;BME280;55732;52.248;-0.844;2023-06-26T01:09:25;100656.62;;;16.93;58.57
62926;BME280;55732;52.248;-0.844;2023-06-26T01:11:51;100657.80;;;16.89;58.43
62926;BME280;55732;52.248;-0.844;2023-06-26T01:14:17;100661.30;;;16.85;58.73
62926;BME280;55732;52.248;-0.844;2023-06-26T01:16:43;100669.20;;;16.81;58.86
62926;BME280;55732;52.248;-0.844;2023-06-26T01:19:27;100671.63;;;16.77;59.03
62926;BME280;55732;52.248;-0.844;2023-06-26T01:22:08;100669.23;;;16.73;59.27
62926;BME280;55732;52.248;-0.844;2023-06-26T01:24:44;100669.13;;;16.71;59.51
62926;BME280;55732;52.248;-0.844;2023-06-26T01:27:18;100676.84;;;16.68;59.54
62926;BME280;55732;52.248;-0.844;2023-06-26T01:29:47;100676.95;;;16.63;59.96
62926;BME280;55732;52.248;-0.844;2023-06-26T01:32:15;100678.98;;;16.58;59.97
62926;BME280;55732;52.248;-0.844;2023-06-26T01:34:41;100676.95;;;16.54;60.22
62926;BME280;55732;52.248;-0.844;2023-06-26T01:37:07;100681.14;;;16.50;60.39
62926;BME280;55732;52.248;-0.844;2023-06-26T01:39:33;100681.04;;;16.47;60.84
62926;BME280;55732;52.248;-0.844;2023-06-26T01:41:59;100682.88;;;16.44;60.92
62926;BME280;55732;52.248;-0.844;2023-06-26T01:44:34;100679.42;;;16.40;61.16
62926;BME280;55732;52.248;-0.844;2023-06-26T01:49:51;100688.69;;;16.31;61.82
62926;BME280;55732;52.248;-0.844;2023-06-26T01:52:44;100691.84;;;16.26;62.07
62926;BME280;55732;52.248;-0.844;2023-06-26T01:58:06;100693.28;;;16.17;62.73
62926;BME280;55732;52.248;-0.844;2023-06-26T02:00:32;100701.34;;;16.15;62.83
62926;BME280;55732;52.248;-0.844;2023-06-26T02:02:59;100706.01;;;16.13;62.94
62926;BME280;55732;52.248;-0.844;2023-06-26T02:05:24;100710.68;;;16.10;63.14
62926;BME280;55732;52.248;-0.844;2023-06-26T02:07:50;100706.28;;;16.08;63.58
62926;BME280;55732;52.248;-0.844;2023-06-26T02:10:16;100707.05;;;16.05;63.64
62926;BME280;55732;52.248;-0.844;2023-06-26T02:12:42;100705.34;;;16.03;63.62
62926;BME280;55732;52.248;-0.844;2023-06-26T02:15:08;100702.56;;;16.00;63.55
62926;BME280;55732;52.248;-0.844;2023-06-26T02:17:33;100707.42;;;15.96;63.90
62926;BME280;55732;52.248;-0.844;2023-06-26T02:19:59;100709.84;;;15.92;64.02
62926;BME280;55732;52.248;-0.844;2023-06-26T02:22:25;100708.30;;;15.88;64.26
62926;BME280;55732;52.248;-0.844;2023-06-26T02:24:50;100709.07;;;15.85;64.41
62926;BME280;55732;52.248;-0.844;2023-06-26T02:27:16;100713.45;;;15.80;64.71
62926;BME280;55732;52.248;-0.844;2023-06-26T02:29:41;100713.30;;;15.79;64.90
62926;BME280;55732;52.248;-0.844;2023-06-26T02:32:07;100711.02;;;15.78;65.07
62926;BME280;55732;52.248;-0.844;2023-06-26T02:34:34;100713.52;;;15.77;65.02
62926;BME280;55732;52.248;-0.844;2023-06-26T02:36:59;100713.02;;;15.74;65.35
62926;BME280;55732;52.248;-0.844;2023-06-26T02:39:26;100717.86;;;15.72;65.34
62926;BME280;55732;52.248;-0.844;2023-06-26T02:41:52;100719.14;;;15.70;65.60
62926;BME280;55732;52.248;-0.844;2023-06-26T02:44:17;100721.14;;;15.69;65.56
62926;BME280;55732;52.248;-0.844;2023-06-26T02:46:43;100719.77;;;15.67;65.79
62926;BME280;55732;52.248;-0.844;2023-06-26T02:49:09;100719.63;;;15.64;65.84
62926;BME280;55732;52.248;-0.844;2023-06-26T02:51:34;100720.54;;;15.62;65.77
62926;BME280;55732;52.248;-0.844;2023-06-26T02:54:00;100723.75;;;15.62;65.98
62926;BME280;55732;52.248;-0.844;2023-06-26T02:56:27;100721.32;;;15.59;66.18
62926;BME280;55732;52.248;-0.844;2023-06-26T02:58:54;100723.70;;;15.56;66.14
62926;BME280;55732;52.248;-0.844;2023-06-26T03:01:19;100726.39;;;15.53;66.44
62926;BME280;55732;52.248;-0.844;2023-06-26T03:03:46;100728.05;;;15.49;66.62
62926;BME280;55732;52.248;-0.844;2023-06-26T03:06:12;100728.08;;;15.47;66.76
62926;BME280;55732;52.248;-0.844;2023-06-26T03:08:38;100729.55;;;15.45;66.75
62926;BME280;55732;52.248;-0.844;2023-06-26T03:11:05;100727.65;;;15.42;66.90
62926;BME280;55732;52.248;-0.844;2023-06-26T03:13:32;100725.02;;;15.40;66.96
62926;BME280;55732;52.248;-0.844;2023-06-26T03:15:58;100725.23;;;15.38;66.88
62926;BME280;55732;52.248;-0.844;2023-06-26T03:18:23;100725.08;;;15.36;67.07
62926;BME280;55732;52.248;-0.844;2023-06-26T03:20:49;100731.48;;;15.36;67.12
62926;BME280;55732;52.248;-0.844;2023-06-26T03:23:14;100738.05;;;15.35;67.29
62926;BME280;55732;52.248;-0.844;2023-06-26T03:25:40;100740.56;;;15.34;67.42
62926;BME280;55732;52.248;-0.844;2023-06-26T03:28:05;100738.83;;;15.33;67.57
62926;BME280;55732;52.248;-0.844;2023-06-26T03:30:30;100742.25;;;15.30;67.66
62926;BME280;55732;52.248;-0.844;2023-06-26T03:32:56;100740.68;;;15.28;67.87
62926;BME280;55732;52.248;-0.844;2023-06-26T03:35:21;100744.07;;;15.27;68.07
62926;BME280;55732;52.248;-0.844;2023-06-26T03:37:48;100744.81;;;15.25;67.91
62926;BME280;55732;52.248;-0.844;2023-06-26T03:40:14;100747.34;;;15.23;68.07
62926;BME280;55732;52.248;-0.844;2023-06-26T03:42:40;100746.09;;;15.23;68.26
62926;BME280;55732;52.248;-0.844;2023-06-26T03:45:05;100752.87;;;15.22;68.37
62926;BME280;55732;52.248;-0.844;2023-06-26T03:47:31;100752.71;;;15.21;68.69
62926;BME280;55732;52.248;-0.844;2023-06-26T03:49:56;100760.16;;;15.21;68.67
62926;BME280;55732;52.248;-0.844;2023-06-26T03:52:22;100764.09;;;15.19;68.71
62926;BME280;55732;52.248;-0.844;2023-06-26T03:54:47;100772.98;;;15.17;68.73
62926;BME280;55732;52.248;-0.844;2023-06-26T03:57:14;100776.02;;;15.15;68.74
62926;BME280;55732;52.248;-0.844;2023-06-26T03:59:39;100781.71;;;15.14;69.07
62926;BME280;55732;52.248;-0.844;2023-06-26T04:02:05;100783.48;;;15.14;69.15
62926;BME280;55732;52.248;-0.844;2023-06-26T04:04:30;100781.36;;;15.13;69.01
62926;BME280;55732;52.248;-0.844;2023-06-26T04:06:56;100785.25;;;15.15;69.36
62926;BME280;55732;52.248;-0.844;2023-06-26T04:09:22;100787.17;;;15.17;69.33
62926;BME280;55732;52.248;-0.844;2023-06-26T04:11:48;100794.97;;;15.18;69.28
62926;BME280;55732;52.248;-0.844;2023-06-26T04:14:13;100794.61;;;15.18;69.19
62926;BME280;55732;52.248;-0.844;2023-06-26T04:16:38;100793.36;;;15.18;69.48
62926;BME280;55732;52.248;-0.844;2023-06-26T04:19:04;100795.10;;;15.22;69.35
62926;BME280;55732;52.248;-0.844;2023-06-26T04:21:30;100797.70;;;15.25;69.45
62926;BME280;55732;52.248;-0.844;2023-06-26T04:23:56;100800.14;;;15.26;69.33
62926;BME280;55732;52.248;-0.844;2023-06-26T04:26:21;100797.45;;;15.29;69.37
62926;BME280;55732;52.248;-0.844;2023-06-26T04:28:47;100798.45;;;15.33;69.24
62926;BME280;55732;52.248;-0.844;2023-06-26T04:31:12;100801.75;;;15.36;69.20
62926;BME280;55732;52.248;-0.844;2023-06-26T04:33:38;100806.12;;;15.40;69.04
62926;BME280;55732;52.248;-0.844;2023-06-26T04:36:04;100808.12;;;15.47;69.03
62926;BME280;55732;52.248;-0.844;2023-06-26T04:38:33;100811.33;;;15.95;68.42
62926;BME280;55732;52.248;-0.844;2023-06-26T04:41:00;100815.83;;;16.52;67.26
62926;BME280;55732;52.248;-0.844;2023-06-26T04:43:25;100816.30;;;16.88;66.41
62926;BME280;55732;52.248;-0.844;2023-06-26T04:45:51;100810.71;;;17.13;65.73
62926;BME280;55732;52.248;-0.844;2023-06-26T04:48:16;100816.49;;;17.02;65.68
62926;BME280;55732;52.248;-0.844;2023-06-26T04:50:42;100820.40;;;16.87;65.82
62926;BME280;55732;52.248;-0.844;2023-06-26T04:53:07;100825.70;;;16.73;65.99
62926;BME280;55732;52.248;-0.844;2023-06-26T04:55:33;100823.91;;;16.66;66.05
62926;BME280;55732;52.248;-0.844;2023-06-26T04:57:58;100825.40;;;16.53;66.09
62926;BME280;55732;52.248;-0.844;2023-06-26T05:00:24;100828.66;;;16.43;66.35
62926;BME280;55732;52.248;-0.844;2023-06-26T05:02:51;100830.79;;;16.34;66.58
62926;BME280;55732;52.248;-0.844;2023-06-26T05:05:27;100832.59;;;16.25;66.76
62926;BME280;55732;52.248;-0.844;2023-06-26T05:07:56;100835.76;;;16.18;66.89
62926;BME280;55732;52.248;-0.844;2023-06-26T05:10:22;100835.42;;;16.34;66.74
62926;BME280;55732;52.248;-0.844;2023-06-26T05:12:48;100837.21;;;16.50;66.72
62926;BME280;55732;52.248;-0.844;2023-06-26T05:15:13;100835.75;;;16.69;66.43
62926;BME280;55732;52.248;-0.844;2023-06-26T05:17:39;100837.19;;;16.92;66.19
62926;BME280;55732;52.248;-0.844;2023-06-26T05:20:04;100836.23;;;17.17;65.63
62926;BME280;55732;52.248;-0.844;2023-06-26T05:22:32;100832.02;;;17.37;65.35
62926;BME280;55732;52.248;-0.844;2023-06-26T05:24:59;100835.91;;;17.51;64.99
62926;BME280;55732;52.248;-0.844;2023-06-26T05:27:26;100840.33;;;17.60;64.77
62926;BME280;55732;52.248;-0.844;2023-06-26T05:29:52;100846.08;;;17.66;64.65
62926;BME280;55732;52.248;-0.844;2023-06-26T05:32:18;100844.27;;;17.73;64.46
62926;BME280;55732;52.248;-0.844;2023-06-26T05:34:47;100843.88;;;17.81;64.38
62926;BME280;55732;52.248;-0.844;2023-06-26T05:37:19;100848.25;;;18.10;63.88
62926;BME280;55732;52.248;-0.844;2023-06-26T05:39:45;100854.70;;;18.46;63.24
62926;BME280;55732;52.248;-0.844;2023-06-26T05:42:13;100855.84;;;18.63;62.76
62926;BME280;55732;52.248;-0.844;2023-06-26T05:44:39;100859.38;;;18.76;62.56
62926;BME280;55732;52.248;-0.844;2023-06-26T05:47:05;100864.46;;;18.78;62.40
62926;BME280;55732;52.248;-0.844;2023-06-26T05:49:30;100861.98;;;18.72;62.30
62926;BME280;55732;52.248;-0.844;2023-06-26T05:51:56;100859.39;;;18.81;62.12
62926;BME280;55732;52.248;-0.844;2023-06-26T05:54:23;100856.54;;;18.81;62.10
62926;BME280;55732;52.248;-0.844;2023-06-26T05:56:49;100862.23;;;18.70;62.17
62926;BME280;55732;52.248;-0.844;2023-06-26T05:59:17;100867.02;;;18.58;62.55
62926;BME280;55732;52.248;-0.844;2023-06-26T06:01:43;100872.62;;;18.49;62.62
62926;BME280;55732;52.248;-0.844;2023-06-26T06:04:08;100878.24;;;18.46;62.86
62926;BME280;55732;52.248;-0.844;2023-06-26T06:06:33;100875.94;;;18.39;62.90
62926;BME280;55732;52.248;-0.844;2023-06-26T06:08:59;100876.16;;;18.31;63.03
62926;BME280;55732;52.248;-0.844;2023-06-26T06:11:24;100883.91;;;18.23;63.17
62926;BME280;55732;52.248;-0.844;2023-06-26T06:13:49;100890.24;;;18.13;63.32
62926;BME280;55732;52.248;-0.844;2023-06-26T06:16:15;100896.37;;;18.04;63.30
62926;BME280;55732;52.248;-0.844;2023-06-26T06:18:40;100894.48;;;17.94;63.56
62926;BME280;55732;52.248;-0.844;2023-06-26T06:21:05;100901.69;;;17.84;63.56
62926;BME280;55732;52.248;-0.844;2023-06-26T06:23:31;100897.55;;;17.72;63.83
62926;BME280;55732;52.248;-0.844;2023-06-26T06:25:56;100901.86;;;17.63;63.84
62926;BME280;55732;52.248;-0.844;2023-06-26T06:28:21;100902.19;;;17.57;63.90
62926;BME280;55732;52.248;-0.844;2023-06-26T06:30:47;100898.70;;;17.54;64.26
62926;BME280;55732;52.248;-0.844;2023-06-26T06:33:13;100899.08;;;17.53;64.49
62926;BME280;55732;52.248;-0.844;2023-06-26T06:35:38;100901.89;;;17.55;64.78
62926;BME280;55732;52.248;-0.844;2023-06-26T06:38:04;100899.49;;;17.57;64.70
62926;BME280;55732;52.248;-0.844;2023-06-26T06:40:29;100894.21;;;17.63;64.70
62926;BME280;55732;52.248;-0.844;2023-06-26T06:42:55;100900.35;;;17.74;64.64
62926;BME280;55732;52.248;-0.844;2023-06-26T06:45:20;100901.88;;;17.90;64.21
62926;BME280;55732;52.248;-0.844;2023-06-26T06:47:45;100902.48;;;18.01;63.89
62926;BME280;55732;52.248;-0.844;2023-06-26T06:50:11;100911.16;;;18.10;63.70
62926;BME280;55732;52.248;-0.844;2023-06-26T06:52:37;100922.87;;;18.25;63.57
62926;BME280;55732;52.248;-0.844;2023-06-26T06:55:03;100925.00;;;18.45;63.62
62926;BME280;55732;52.248;-0.844;2023-06-26T06:57:35;100927.33;;;18.70;63.15
62926;BME280;55732;52.248;-0.844;2023-06-26T07:00:12;100932.52;;;18.93;62.65
62926;BME280;55732;52.248;-0.844;2023-06-26T07:02:41;100936.63;;;19.28;62.19
62926;BME280;55732;52.248;-0.844;2023-06-26T07:05:07;100935.71;;;19.68;61.41
62926;BME280;55732;52.248;-0.844;2023-06-26T07:07:34;100930.33;;;20.05;60.54
62926;BME280;55732;52.248;-0.844;2023-06-26T07:10:01;100934.61;;;20.31;60.22
62926;BME280;55732;52.248;-0.844;2023-06-26T07:12:26;100937.65;;;20.42;59.44
62926;BME280;55732;52.248;-0.844;2023-06-26T07:14:51;100942.55;;;20.40;58.99
62926;BME280;55732;52.248;-0.844;2023-06-26T07:17:17;100940.93;;;20.40;59.02
62926;BME280;55732;52.248;-0.844;2023-06-26T07:19:42;100948.38;;;20.47;58.41
62926;BME280;55732;52.248;-0.844;2023-06-26T07:22:08;100943.39;;;20.46;58.12
62926;BME280;55732;52.248;-0.844;2023-06-26T07:24:33;100950.15;;;20.47;58.59
62926;BME280;55732;52.248;-0.844;2023-06-26T07:26:59;100944.17;;;20.54;58.16
62926;BME280;55732;52.248;-0.844;2023-06-26T07:29:25;100947.90;;;20.79;57.65
62926;BME280;55732;52.248;-0.844;2023-06-26T07:31:51;100950.14;;;21.24;56.58
62926;BME280;55732;52.248;-0.844;2023-06-26T07:34:16;100945.73;;;21.92;55.00
62926;BME280;55732;52.248;-0.844;2023-06-26T07:36:41;100945.23;;;22.61;53.63
62926;BME280;55732;52.248;-0.844;2023-06-26T07:39:07;100946.44;;;23.32;52.12
62926;BME280;55732;52.248;-0.844;2023-06-26T07:41:32;100942.45;;;23.69;50.96
62926;BME280;55732;52.248;-0.844;2023-06-26T07:43:58;100948.13;;;23.78;50.59
62926;BME280;55732;52.248;-0.844;2023-06-26T07:46:24;100955.65;;;23.64;50.26
62926;BME280;55732;52.248;-0.844;2023-06-26T07:48:49;100955.02;;;23.55;50.24
62926;BME280;55732;52.248;-0.844;2023-06-26T07:51:14;100954.23;;;23.41;49.81
62926;BME280;55732;52.248;-0.844;2023-06-26T07:53:40;100961.63;;;23.26;49.88
62926;BME280;55732;52.248;-0.844;2023-06-26T07:56:06;100961.23;;;23.16;49.67
62926;BME280;55732;52.248;-0.844;2023-06-26T07:58:31;100956.34;;;23.24;49.45
62926;BME280;55732;52.248;-0.844;2023-06-26T08:00:57;100951.11;;;23.47;48.58
62926;BME280;55732;52.248;-0.844;2023-06-26T08:03:22;100958.05;;;23.29;49.15
62926;BME280;55732;52.248;-0.844;2023-06-26T08:05:48;100955.64;;;23.60;48.34
62926;BME280;55732;52.248;-0.844;2023-06-26T08:08:14;100957.59;;;24.79;46.37
62926;BME280;55732;52.248;-0.844;2023-06-26T08:10:39;100954.38;;;25.44;45.20
62926;BME280;55732;52.248;-0.844;2023-06-26T08:13:05;100951.97;;;26.22;44.21
62926;BME280;55732;52.248;-0.844;2023-06-26T08:15:30;100961.73;;;26.81;43.12
62926;BME280;55732;52.248;-0.844;2023-06-26T08:17:55;100963.77;;;27.20;42.14
62926;BME280;55732;52.248;-0.844;2023-06-26T08:20:21;100960.46;;;26.75;42.34
62926;BME280;55732;52.248;-0.844;2023-06-26T08:22:47;100961.34;;;26.28;42.06
62926;BME280;55732;52.248;-0.844;2023-06-26T08:25:15;100963.68;;;26.70;41.22
62926;BME280;55732;52.248;-0.844;2023-06-26T08:27:40;100962.70;;;26.94;40.60
62926;BME280;55732;52.248;-0.844;2023-06-26T08:30:06;100966.31;;;28.22;39.09
62926;BME280;55732;52.248;-0.844;2023-06-26T08:32:32;100967.08;;;29.69;37.21
62926;BME280;55732;52.248;-0.844;2023-06-26T08:34:57;100958.30;;;30.83;35.00
62926;BME280;55732;52.248;-0.844;2023-06-26T08:37:22;100956.90;;;29.98;34.74
62926;BME280;55732;52.248;-0.844;2023-06-26T08:39:48;100958.90;;;29.28;35.07
62926;BME280;55732;52.248;-0.844;2023-06-26T08:42:14;100961.84;;;28.33;35.68
62926;BME280;55732;52.248;-0.844;2023-06-26T08:44:39;100969.88;;;27.79;36.50
62926;BME280;55732;52.248;-0.844;2023-06-26T08:47:04;100974.11;;;27.19;37.37
62926;BME280;55732;52.248;-0.844;2023-06-26T08:49:56;100971.77;;;26.47;38.63
62926;BME280;55732;52.248;-0.844;2023-06-26T08:52:37;100982.41;;;25.77;39.29
62926;BME280;55732;52.248;-0.844;2023-06-26T08:55:09;100992.80;;;25.66;39.32
62926;BME280;55732;52.248;-0.844;2023-06-26T08:57:36;100992.57;;;25.39;39.35
62926;BME280;55732;52.248;-0.844;2023-06-26T09:00:03;100987.76;;;24.91;39.83
62926;BME280;55732;52.248;-0.844;2023-06-26T09:02:29;100989.15;;;24.49;40.84
62926;BME280;55732;52.248;-0.844;2023-06-26T09:04:54;100985.27;;;24.27;41.06
62926;BME280;55732;52.248;-0.844;2023-06-26T09:07:20;100991.30;;;23.99;41.30
62926;BME280;55732;52.248;-0.844;2023-06-26T09:09:46;100995.73;;;23.65;41.64
62926;BME280;55732;52.248;-0.844;2023-06-26T09:12:11;101002.45;;;23.29;41.86
62926;BME280;55732;52.248;-0.844;2023-06-26T09:14:38;101007.54;;;22.89;42.25
62926;BME280;55732;52.248;-0.844;2023-06-26T09:17:04;101006.28;;;22.56;42.67
62926;BME280;55732;52.248;-0.844;2023-06-26T09:19:29;101005.20;;;22.28;43.40
62926;BME280;55732;52.248;-0.844;2023-06-26T09:21:55;101000.77;;;22.01;43.92
62926;BME280;55732;52.248;-0.844;2023-06-26T09:24:21;101004.28;;;21.85;44.37
62926;BME280;55732;52.248;-0.844;2023-06-26T09:26:48;101006.30;;;22.43;44.03
62926;BME280;55732;52.248;-0.844;2023-06-26T09:29:15;101011.67;;;23.47;42.40
62926;BME280;55732;52.248;-0.844;2023-06-26T09:31:41;101016.04;;;23.46;42.37
62926;BME280;55732;52.248;-0.844;2023-06-26T09:34:06;101017.39;;;23.95;41.55
62926;BME280;55732;52.248;-0.844;2023-06-26T09:36:33;101016.73;;;24.16;41.08
62926;BME280;55732;52.248;-0.844;2023-06-26T09:39:03;101016.16;;;23.99;41.29
62926;BME280;55732;52.248;-0.844;2023-06-26T09:41:36;101014.70;;;23.81;41.58
62926;BME280;55732;52.248;-0.844;2023-06-26T09:44:04;101014.48;;;24.11;41.55
62926;BME280;55732;52.248;-0.844;2023-06-26T09:46:30;101018.35;;;24.61;40.52
62926;BME280;55732;52.248;-0.844;2023-06-26T09:49:01;101020.45;;;24.73;40.31
62926;BME280;55732;52.248;-0.844;2023-06-26T09:51:29;101026.52;;;25.08;39.72
62926;BME280;55732;52.248;-0.844;2023-06-26T09:53:54;101025.02;;;26.14;38.47
62926;BME280;55732;52.248;-0.844;2023-06-26T09:56:20;101025.64;;;27.30;37.69
62926;BME280;55732;52.248;-0.844;2023-06-26T09:58:46;101021.83;;;28.58;36.29
62926;BME280;55732;52.248;-0.844;2023-06-26T10:01:12;101022.34;;;29.70;34.87
62926;BME280;55732;52.248;-0.844;2023-06-26T10:03:38;101014.80;;;29.91;34.18
62926;BME280;55732;52.248;-0.844;2023-06-26T10:06:04;101016.90;;;29.75;33.77
62926;BME280;55732;52.248;-0.844;2023-06-26T10:08:30;101015.91;;;29.42;33.58
62926;BME280;55732;52.248;-0.844;2023-06-26T10:10:57;101020.45;;;28.99;33.49
62926;BME280;55732;52.248;-0.844;2023-06-26T10:13:29;101025.51;;;28.89;33.84
62926;BME280;55732;52.248;-0.844;2023-06-26T10:15:57;101029.06;;;28.88;32.99
62926;BME280;55732;52.248;-0.844;2023-06-26T10:18:25;101034.14;;;29.45;32.45
62926;BME280;55732;52.248;-0.844;2023-06-26T10:20:55;101044.30;;;30.14;31.42
62926;BME280;55732;52.248;-0.844;2023-06-26T10:23:23;101047.28;;;30.70;30.35
62926;BME280;55732;52.248;-0.844;2023-06-26T10:25:51;101049.11;;;30.06;31.03
62926;BME280;55732;52.248;-0.844;2023-06-26T10:28:19;101048.25;;;29.31;31.64
62926;BME280;55732;52.248;-0.844;2023-06-26T10:30:47;101047.22;;;28.51;32.11
62926;BME280;55732;52.248;-0.844;2023-06-26T10:33:13;101049.80;;;27.85;33.04
62926;BME280;55732;52.248;-0.844;2023-06-26T10:35:45;101045.13;;;27.26;33.64
62926;BME280;55732;52.248;-0.844;2023-06-26T10:38:11;101051.66;;;26.97;34.70
62926;BME280;55732;52.248;-0.844;2023-06-26T10:40:44;101050.70;;;26.77;35.31
62926;BME280;55732;52.248;-0.844;2023-06-26T10:43:12;101045.04;;;26.54;35.69
62926;BME280;55732;52.248;-0.844;2023-06-26T10:45:42;101045.38;;;26.34;35.86
62926;BME280;55732;52.248;-0.844;2023-06-26T10:48:08;101045.48;;;26.13;36.41
62926;BME280;55732;52.248;-0.844;2023-06-26T10:50:34;101050.84;;;25.99;36.68
62926;BME280;55732;52.248;-0.844;2023-06-26T10:53:29;101054.56;;;25.90;36.41
62926;BME280;55732;52.248;-0.844;2023-06-26T10:56:04;101052.35;;;25.69;37.17
62926;BME280;55732;52.248;-0.844;2023-06-26T10:58:43;101051.29;;;25.62;37.42
62926;BME280;55732;52.248;-0.844;2023-06-26T11:03:41;101045.48;;;25.69;36.83
62926;BME280;55732;52.248;-0.844;2023-06-26T11:06:15;101045.48;;;25.69;36.93
62926;BME280;55732;52.248;-0.844;2023-06-26T11:09:11;101056.58;;;25.71;37.39
62926;BME280;55732;52.248;-0.844;2023-06-26T11:14:24;101059.39;;;25.88;37.55
62926;BME280;55732;52.248;-0.844;2023-06-26T11:16:50;101061.84;;;25.67;37.16
62926;BME280;55732;52.248;-0.844;2023-06-26T11:19:19;101065.48;;;25.37;36.96
62926;BME280;55732;52.248;-0.844;2023-06-26T11:21:46;101059.71;;;25.31;37.33
62926;BME280;55732;52.248;-0.844;2023-06-26T11:24:12;101063.20;;;25.23;37.15
62926;BME280;55732;52.248;-0.844;2023-06-26T11:26:42;101067.16;;;25.26;37.31
62926;BME280;55732;52.248;-0.844;2023-06-26T11:29:08;101068.98;;;25.39;37.71
62926;BME280;55732;52.248;-0.844;2023-06-26T11:31:36;101063.86;;;25.37;37.87
62926;BME280;55732;52.248;-0.844;2023-06-26T11:34:07;101066.33;;;25.32;37.83
62926;BME280;55732;52.248;-0.844;2023-06-26T11:36:34;101062.54;;;25.12;37.51
62926;BME280;55732;52.248;-0.844;2023-06-26T11:39:03;101066.66;;;25.25;37.25
62926;BME280;55732;52.248;-0.844;2023-06-26T11:41:32;101068.02;;;25.30;36.96
62926;BME280;55732;52.248;-0.844;2023-06-26T11:44:06;101063.47;;;25.41;37.41
62926;BME280;55732;52.248;-0.844;2023-06-26T11:46:33;101069.39;;;25.51;37.11
62926;BME280;55732;52.248;-0.844;2023-06-26T11:48:59;101072.45;;;25.51;36.97
62926;BME280;55732;52.248;-0.844;2023-06-26T11:51:28;101077.08;;;25.33;36.70
62926;BME280;55732;52.248;-0.844;2023-06-26T11:53:54;101081.14;;;25.14;36.57
62926;BME280;55732;52.248;-0.844;2023-06-26T11:56:19;101078.61;;;25.28;36.75
62926;BME280;55732;52.248;-0.844;2023-06-26T12:01:31;101087.10;;;25.67;36.46
62926;BME280;55732;52.248;-0.844;2023-06-26T12:03:59;101087.51;;;25.79;35.41
62926;BME280;55732;52.248;-0.844;2023-06-26T12:06:27;101084.37;;;25.93;35.65
62926;BME280;55732;52.248;-0.844;2023-06-26T12:08:54;101083.95;;;26.07;36.04
62926;BME280;55732;52.248;-0.844;2023-06-26T12:11:21;101081.45;;;26.00;35.77
62926;BME280;55732;52.248;-0.844;2023-06-26T12:13:48;101074.44;;;26.15;35.26
62926;BME280;55732;52.248;-0.844;2023-06-26T12:16:14;101074.27;;;26.30;34.95
62926;BME280;55732;52.248;-0.844;2023-06-26T12:18:39;101071.83;;;26.44;35.21
62926;BME280;55732;52.248;-0.844;2023-06-26T12:21:06;101074.89;;;26.56;35.44
62926;BME280;55732;52.248;-0.844;2023-06-26T12:23:33;101074.51;;;26.75;34.78
62926;BME280;55732;52.248;-0.844;2023-06-26T12:26:18;101074.66;;;26.84;34.67
62926;BME280;55732;52.248;-0.844;2023-06-26T12:28:44;101079.02;;;26.99;34.30
62926;BME280;55732;52.248;-0.844;2023-06-26T12:31:19;101080.33;;;26.98;33.95
62926;BME280;55732;52.248;-0.844;2023-06-26T12:33:45;101079.36;;;26.87;33.63
62926;BME280;55732;52.248;-0.844;2023-06-26T12:36:12;101083.59;;;26.44;34.17
62926;BME280;55732;52.248;-0.844;2023-06-26T12:38:38;101088.52;;;26.09;34.43
62926;BME280;55732;52.248;-0.844;2023-06-26T12:41:03;101082.54;;;25.97;34.68
62926;BME280;55732;52.248;-0.844;2023-06-26T12:43:29;101085.83;;;26.12;35.03
62926;BME280;55732;52.248;-0.844;2023-06-26T12:45:57;101080.84;;;26.29;34.88
62926;BME280;55732;52.248;-0.844;2023-06-26T12:48:44;101083.20;;;26.32;34.67
62926;BME280;55732;52.248;-0.844;2023-06-26T12:51:17;101079.81;;;26.37;34.56
62926;BME280;55732;52.248;-0.844;2023-06-26T12:53:43;101076.92;;;26.43;34.66